Latest Weather Observations for Norah Head

IDN60801

Issued at 1:32 pm EST Tuesday 26 May 2015 (issued every 30 minutes, with the page automatically refreshed every 10 minutes)

About weather observations | Map of weather stations | Latest weather observations for NSW | Other Formats
Station Details ID: 061366 Name: NORAH HEAD AWS Lat: -33.28 Lon: 151.58 Height: 18.8 m
Data from the previous 72 hours. | See also: Recent months at Norah Head
Date/Time
EST
Temp
°C
App
Temp
°C
Dew
Point
Rel
Hum
%
Delta-T
°C
Wind Press
QNH
hPa
Press
MSL
hPa
Rain
since 9 am
mm
Dir
 
Spd
km/h
Gust
km/h
Spd
kts
Gust
kts
26/01:30pm 18.1 17.6 12.8 71 2.9 SSW 7 15 4 8 1027.0 1027.0 0.0
26/01:00pm 17.9 17.3 12.4 70 3.0 SW 7 11 4 6 1027.2 1027.2 0.0
26/12:30pm 17.2 16.0 11.5 69 3.1 SW 9 13 5 7 1027.5 1027.5 0.0
26/12:00pm 17.5 16.8 11.3 67 3.3 SSW 6 9 3 5 1028.0 1028.0 0.0
26/11:30am 17.4 16.9 12.1 71 2.9 SW 6 11 3 6 1028.5 1028.5 0.0
26/11:00am 16.8 15.8 11.1 69 3.0 WSW 7 13 4 7 1028.9 1028.9 0.0
26/10:30am 16.0 14.5 10.7 71 2.8 WSW 9 13 5 7 1029.2 1029.2 0.0
26/10:00am 15.3 13.3 10.3 72 2.6 WSW 11 17 6 9 1029.1 1029.1 0.0
26/09:30am 13.8 11.3 9.6 76 2.2 W 13 19 7 10 1029.2 1029.2 0.0
26/09:00am 13.1 10.4 9.0 76 2.1 W 13 20 7 11 1029.3 1029.3 0.0
26/08:30am 12.4 8.8 8.5 77 1.9 W 17 22 9 12 1029.1 1029.1 0.0
26/08:00am 11.6 8.0 8.3 80 1.6 W 17 22 9 12 1029.0 1029.0 0.0
26/07:30am 11.1 7.5 8.3 83 1.4 W 17 22 9 12 1028.7 1028.7 0.0
26/07:00am 11.1 7.1 8.3 83 1.4 W 19 24 10 13 1028.6 1028.6 0.0
26/06:30am 11.2 7.2 8.4 83 1.4 W 19 24 10 13 1028.3 1028.3 0.0
26/06:00am 11.3 7.9 9.0 86 1.1 W 17 20 9 11 1028.3 1028.3 0.0
26/05:30am 11.3 8.0 9.6 89 0.9 W 17 22 9 12 1027.9 1027.9 0.0
26/05:00am 11.4 8.6 10.1 92 0.7 W 15 20 8 11 1028.1 1028.1 0.0
26/04:30am 11.3 8.7 10.7 96 0.3 W 15 19 8 10 1028.1 1028.1 0.0
26/04:00am 11.6 9.4 10.7 94 0.5 WSW 13 17 7 9 1028.1 1028.1 0.0
26/03:30am 12.1 9.5 10.8 92 0.7 WSW 15 19 8 10 1028.2 1028.2 0.0
26/03:00am 11.7 9.4 10.6 93 0.6 W 13 19 7 10 1028.3 1028.3 0.0
26/02:30am 12.7 10.1 10.6 87 1.1 WSW 15 19 8 10 1028.4 1028.4 0.0
26/02:00am 13.1 10.5 10.6 85 1.3 WSW 15 19 8 10 1028.5 1028.5 0.0
26/01:30am 12.8 10.2 10.7 87 1.1 WSW 15 19 8 10 1028.6 1028.6 0.0
26/01:00am 13.4 10.4 10.8 84 1.4 W 17 19 9 10 1028.6 1028.6 0.0
26/12:30am 13.5 10.9 10.7 83 1.5 W 15 19 8 10 1028.7 1028.7 0.0
26/12:00am 14.2 12.0 10.8 80 1.8 WSW 13 15 7 8 1028.7 1028.7 0.0
 
Date/Time
EST
Temp
°C
App
Temp
°C
Dew
Point
Rel
Hum
%
Delta-T
°C
Wind Press
QNH
hPa
Press
MSL
hPa
Rain
since 9 am
mm
Dir
 
Spd
km/h
Gust
km/h
Spd
kts
Gust
kts
25/11:30pm 14.7 12.6 11.1 79 1.9 WSW 13 13 7 7 1028.9 1028.9 0.0
25/11:00pm 14.8 13.1 11.2 79 1.9 W 11 13 6 7 1029.0 1029.0 0.0
25/10:30pm 15.1 14.1 11.1 77 2.1 W 7 9 4 5 1029.1 1029.1 0.0
25/10:00pm 15.3 15.3 11.3 77 2.1 WNW 2 6 1 3 1029.3 1029.3 0.0
25/09:30pm 15.6 14.7 11.4 76 2.3 WNW 7 9 4 5 1029.2 1029.2 0.0
25/09:00pm 15.5 14.8 11.3 76 2.2 WNW 6 9 3 5 1029.3 1029.3 0.0
25/08:30pm 15.5 14.6 11.3 76 2.3 WNW 7 11 4 6 1029.5 1029.5 0.0
25/08:00pm 15.4 14.9 12.0 80 1.8 W 6 11 3 6 1029.4 1029.4 0.0
25/07:30pm 15.5 14.5 11.1 75 2.4 WNW 7 13 4 7 1029.2 1029.2 0.0
25/07:00pm 15.6 15.0 11.6 77 2.1 NW 6 9 3 5 1028.8 1028.8 0.0
25/06:30pm 16.0 15.4 12.2 78 2.1 NW 7 11 4 6 1028.5 1028.5 0.0
25/06:00pm 16.7 15.1 12.8 78 2.2 N 13 15 7 8 1028.0 1028.0 0.0
25/05:30pm 16.8 15.0 12.1 74 2.6 NNW 13 17 7 9 1028.3 1028.3 0.0
25/05:00pm 16.9 14.6 11.8 72 2.8 N 15 17 8 9 1028.1 1028.1 0.0
25/04:30pm 17.5 15.3 12.0 70 3.0 N 15 17 8 9 1028.2 1028.2 0.0
25/04:00pm 17.5 15.2 11.8 69 3.1 N 15 17 8 9 1028.2 1028.2 0.0
25/03:30pm 18.1 15.3 11.4 65 3.7 NNE 17 20 9 11 1028.2 1028.2 0.0
25/03:00pm 18.2 16.0 12.0 67 3.4 NNE 15 19 8 10 1028.2 1028.2 0.0
25/02:30pm 18.5 16.7 12.0 66 3.6 NNE 13 15 7 8 1028.6 1028.6 0.0
25/02:00pm 18.6 15.5 10.2 58 4.5 N 17 19 9 10 1029.0 1029.0 0.0
25/01:30pm 18.3 15.1 9.9 58 4.5 N 17 20 9 11 1028.9 1028.9 0.0
25/01:00pm 18.9 17.1 11.0 60 4.3 NNE 11 15 6 8 1029.1 1029.1 0.0
25/12:30pm 19.2 17.7 10.7 58 4.6 NNE 9 13 5 7 1029.5 1029.5 0.0
25/12:00pm 18.9 18.0 11.2 61 4.2 N 7 9 4 5 1030.2 1030.2 0.0
25/11:30am 18.3 17.5 11.6 65 3.7 N 7 7 4 4 1030.6 1030.6 0.0
25/11:00am 18.8 18.1 11.4 62 4.0 N 6 7 3 4 1031.2 1031.2 0.0
25/10:30am 17.2 16.2 10.3 64 3.7 NNW 6 7 3 4 1031.7 1031.7 0.0
25/10:00am 15.5 14.4 10.1 70 2.8 W 6 11 3 6 1031.9 1031.9 0.0
25/09:30am 15.3 14.5 9.7 69 2.9 WNW 4 7 2 4 1032.2 1032.2 0.0
25/09:00am 13.9 11.6 8.9 72 2.5 W 11 15 6 8 1032.0 1032.0 0.0
25/08:30am 13.6 12.0 8.7 72 2.5 W 7 13 4 7 1031.7 1031.7 0.0
25/08:00am 12.9 10.1 8.6 75 2.1 W 13 15 7 8 1031.6 1031.6 0.0
25/07:30am 13.6 12.0 8.2 70 2.7 W 6 7 3 4 1031.5 1031.5 0.0
25/07:00am 13.0 10.9 8.1 72 2.4 W 9 13 5 7 1031.4 1031.4 0.0
25/06:30am 12.5 8.9 8.4 76 2.0 W 17 20 9 11 1031.3 1031.3 0.0
25/06:00am 12.9 10.0 8.2 73 2.3 W 13 17 7 9 1030.8 1030.8 0.0
25/05:30am 12.7 9.1 8.4 75 2.1 W 17 20 9 11 1030.8 1030.8 0.0
25/05:00am 12.6 9.0 8.3 75 2.1 W 17 20 9 11 1030.8 1030.8 0.0
25/04:30am 12.0 8.0 8.3 78 1.8 WSW 19 22 10 12 1031.0 1031.0 0.0
25/04:00am 12.7 9.4 8.0 73 2.3 WSW 15 17 8 9 1030.9 1030.9 0.0
25/03:30am 12.9 10.4 8.2 73 2.3 W 11 17 6 9 1031.0 1031.0 0.0
25/03:00am 12.2 9.0 8.3 77 1.9 W 15 20 8 11 1031.1 1031.1 0.0
25/02:30am 12.4 9.5 8.1 75 2.1 W 13 19 7 10 1031.1 1031.1 0.0
25/02:00am 12.9 10.0 8.0 72 2.4 W 13 17 7 9 1031.0 1031.0 0.0
25/01:30am 12.7 11.1 8.6 76 2.0 NW 7 9 4 5 1031.3 1031.3 0.0
25/01:00am 13.7 10.4 8.1 69 2.8 W 15 19 8 10 1031.6 1031.6 0.0
25/12:30am 13.2 9.6 8.5 73 2.3 W 17 20 9 11 1031.8 1031.8 0.0
25/12:00am 13.7 10.2 8.7 72 2.5 W 17 19 9 10 1031.8 1031.8 0.0
 
Date/Time
EST
Temp
°C
App
Temp
°C
Dew
Point
Rel
Hum
%
Delta-T
°C
Wind Press
QNH
hPa
Press
MSL
hPa
Rain
since 9 am
mm
Dir
 
Spd
km/h
Gust
km/h
Spd
kts
Gust
kts
24/11:30pm 13.5 10.4 9.0 74 2.3 W 15 19 8 10 1031.7 1031.7 0.0
24/11:00pm 13.9 11.1 8.7 71 2.6 W 13 15 7 8 1031.7 1031.7 0.0
24/10:30pm 13.8 10.7 9.0 73 2.4 W 15 17 8 9 1031.8 1031.8 0.0
24/10:00pm 12.8 9.6 9.8 82 1.5 W 17 20 9 11 1032.1 1032.1 0.0
24/09:30pm 13.4 10.2 10.0 80 1.8 W 17 20 9 11 1032.2 1032.2 0.0
24/09:00pm 13.2 10.1 10.2 82 1.5 W 17 20 9 11 1032.2 1032.2 0.0
24/08:30pm 14.2 12.1 9.6 74 2.4 WSW 11 13 6 7 1032.0 1032.0 0.0
24/08:00pm 14.5 13.0 9.3 71 2.6 WSW 7 9 4 5 1031.7 1031.7 0.0
24/07:30pm 14.5 12.8 9.7 73 2.5 WSW 9 11 5 6 1031.5 1031.5 0.0
24/07:00pm 15.2 13.2 8.7 65 3.3 WSW 9 11 5 6 1031.6 1031.6 0.0
24/06:30pm 15.4 14.1 9.3 67 3.1 SW 6 9 3 5 1031.6 1031.6 0.0
24/06:00pm 15.6 14.4 9.5 67 3.1 SW 6 9 3 5 1031.6 1031.6 0.0
24/05:30pm 15.6 14.3 9.3 66 3.2 SW 6 7 3 4 1031.4 1031.4 0.0
24/05:00pm 15.8 14.6 9.7 67 3.1 SSW 6 9 3 5 1031.0 1031.0 0.0
24/04:30pm 16.2 14.6 10.1 67 3.2 SSW 9 13 5 7 1030.9 1030.9 0.0
24/04:00pm 16.4 14.9 10.7 69 3.0 S 9 13 5 7 1030.8 1030.8 0.0
24/03:30pm 16.6 15.1 10.7 68 3.1 S 9 15 5 8 1030.8 1030.8 0.0
24/03:00pm 16.9 15.5 11.0 68 3.1 S 9 13 5 7 1030.8 1030.8 0.0
24/02:30pm 16.9 15.8 10.7 67 3.3 SSW 7 11 4 6 1030.6 1030.6 0.0
24/02:00pm 16.7 14.8 10.5 67 3.3 SSW 11 15 6 8 1030.6 1030.6 0.0
24/01:30pm 16.7 15.2 10.5 67 3.3 SSW 9 15 5 8 1030.6 1030.6 0.0
24/01:00pm 16.4 14.4 10.0 66 3.3 SSW 11 17 6 9 1030.7 1030.7 0.0
24/12:30pm 15.9 14.4 9.3 65 3.4 SSW 7 13 4 7 1030.9 1030.9 0.0
24/12:00pm 15.8 14.9 10.6 71 2.7 SW 6 11 3 6 1031.3 1031.3 0.0
24/11:30am 15.7 14.4 9.8 68 3.1 WSW 7 13 4 7 1031.6 1031.6 0.0
24/11:00am 15.6 14.4 10.2 70 2.8 W 7 13 4 7 1031.8 1031.8 0.0
24/10:30am 15.7 14.6 10.5 71 2.7 W 7 15 4 8 1032.0 1032.0 0.0
24/10:00am 15.0 13.6 10.8 76 2.2 W 9 17 5 9 1031.9 1031.9 0.0
24/09:30am 13.4 11.2 9.3 76 2.1 W 11 19 6 10 1031.9 1031.9 0.0
24/09:00am 13.1 10.5 9.2 77 2.0 W 13 19 7 10 1031.7 1031.7 0.6
24/08:30am 13.4 11.3 9.6 78 1.9 W 11 22 6 12 1031.4 1031.4 0.6
24/08:00am 11.8 9.8 8.8 82 1.5 WSW 9 19 5 10 1031.4 1031.4 0.6
24/07:30am 11.6 8.9 8.8 83 1.4 W 13 24 7 13 1030.9 1030.9 0.6
24/07:00am 11.3 8.5 8.7 84 1.3 W 13 20 7 11 1030.6 1030.6 0.6
24/06:30am 11.0 8.3 8.9 87 1.0 W 13 22 7 12 1030.4 1030.4 0.6
24/06:00am 11.0 8.6 8.8 86 1.1 W 11 19 6 10 1030.3 1030.3 0.6
24/05:30am 11.1 8.4 8.8 86 1.1 W 13 19 7 10 1030.0 1030.0 0.6
24/05:00am 11.0 8.3 8.9 87 1.0 W 13 22 7 12 1029.6 1029.6 0.6
24/04:30am 11.0 8.0 9.1 88 0.9 W 15 20 8 11 1029.5 1029.5 0.6
24/04:00am 10.6 7.5 9.0 90 0.8 W 15 22 8 12 1029.2 1029.2 0.6
24/03:30am 10.8 8.1 9.1 89 0.8 W 13 19 7 10 1029.1 1029.1 0.6
24/03:00am 10.8 7.8 9.2 90 0.8 W 15 20 8 11 1029.0 1029.0 0.6
24/02:30am 11.0 8.0 9.1 88 0.9 W 15 20 8 11 1029.0 1029.0 0.6
24/02:00am 11.0 8.0 9.1 88 0.9 W 15 24 8 13 1029.0 1029.0 0.6
24/01:30am 11.0 8.0 9.1 88 0.9 W 15 20 8 11 1029.0 1029.0 0.6
24/01:00am 11.3 8.3 9.2 87 1.0 W 15 19 8 10 1029.0 1029.0 0.6
24/12:30am 11.5 8.9 9.2 86 1.2 W 13 20 7 11 1029.2 1029.2 0.6
24/12:00am 11.6 9.0 9.5 87 1.1 W 13 19 7 10 1029.2 1029.2 0.6
 
Date/Time
EST
Temp
°C
App
Temp
°C
Dew
Point
Rel
Hum
%
Delta-T
°C
Wind Press
QNH
hPa
Press
MSL
hPa
Rain
since 9 am
mm
Dir
 
Spd
km/h
Gust
km/h
Spd
kts
Gust
kts
23/11:30pm 11.7 9.1 9.4 86 1.2 W 13 17 7 9 1029.2 1029.2 0.6
23/11:00pm 12.7 10.2 9.7 82 1.5 WSW 13 19 7 10 1029.2 1029.2 0.6
23/10:30pm 12.9 10.0 9.5 80 1.7 WSW 15 19 8 10 1029.3 1029.3 0.6
23/10:00pm 12.9 10.0 9.7 81 1.6 WSW 15 19 8 10 1029.2 1029.2 0.6
23/09:30pm 14.4 12.3 8.1 66 3.1 WSW 9 17 5 9 1029.4 1029.4 0.6
23/09:00pm 16.5 11.1 8.0 57 4.3 S 26 32 14 17 1029.0 1029.0 0.6
23/08:30pm 14.6 11.6 9.4 71 2.7 WSW 15 22 8 12 1029.2 1029.2 0.6
23/08:00pm 14.2 11.3 9.8 75 2.3 WSW 15 20 8 11 1029.1 1029.1 0.6
23/07:30pm 16.5 12.7 11.2 71 2.9 S 22 30 12 16 1029.0 1029.0 0.6
23/07:00pm 16.2 13.6 12.0 76 2.3 SSW 17 26 9 14 1028.8 1028.8 0.6
23/06:30pm 16.4 11.5 11.3 72 2.7 SSW 28 39 15 21 1028.5 1028.5 0.6
23/06:00pm 16.5 11.7 11.6 73 2.6 S 28 37 15 20 1028.3 1028.3 0.6
23/05:30pm 16.6 12.1 11.3 71 2.9 S 26 37 14 20 1028.1 1028.1 0.6
23/05:00pm 16.6 11.4 11.7 73 2.6 S 30 43 16 23 1027.9 1027.9 0.6
23/04:30pm 16.6 12.3 12.0 74 2.5 S 26 37 14 20 1027.8 1027.8 0.6
23/04:00pm 16.9 13.2 12.6 76 2.4 SSW 24 35 13 19 1027.7 1027.7 0.6
23/03:30pm 16.9 12.7 12.4 75 2.5 SSW 26 41 14 22 1027.5 1027.5 0.6
23/03:00pm 16.7 11.7 12.3 75 2.4 SSW 30 41 16 22 1027.3 1027.3 0.6
23/02:30pm 16.6 11.3 12.6 77 2.2 SSW 32 46 17 25 1027.2 1027.2 0.6
23/02:00pm 16.2 13.3 12.9 81 1.8 SSW 20 39 11 21 1027.4 1027.4 0.6

Other Formats:

Comma delimited format used in spreadsheet applications
http://www.bom.gov.au/fwo/IDN60801/IDN60801.95770.axf

JavaScript Object Notation format (JSON) in row-major order
http://www.bom.gov.au/fwo/IDN60801/IDN60801.95770.json